Kenneth, Minnesota
Current Conditions -  °F | °C
As of 10:34 PM on Wednesday 26 Nov 2014 (Local Time) from KLYV Reporting Station
Clear Clear  
Wind Chill: -17°   Ceiling: Unl
Heat Index: -12°   Visibility: 10mi
Dew Point: -20°   Wind: 5mph
Humidity: 52%   Direction: 340°NNW
Pressure: 30.44"   Gusts: NA
Location:  43.75°N, 96.07°W
Report Text: KLYV 270434Z AUTO 34004KT 10SM CLR M12/M20 A3044 RMK AO2
Loading
Personal Weather Stations






























Interactive Weather Map New forecast layout! Learn more

10-Day Weather Forecast

Advertisements
Track Severe Weather on mobile